METAR Data
IDs: Format: Raw Decoded Include TAF

Data at: 2358 UTC 29 May 2020

PAMC 292353Z AUTO 02010KT 10SM SCT080 22/04 A2992 RMK AO2 SLP133 T02170039 10228 20156 58026 TSNO